Time;durP1;ratioP1;P1;durP2;ratioP2;P2;SDS_P1;SDS_P2;PMS_P1;PMS_P2;Temp;Humidity;BMP_temperature;BMP_pressure;BME280_temperature;BME280_humidity;BME280_pressure;Samples;Min_cycle;Max_cycle;Signal;HPM_P1;HPM_P2
2021/08/17 00:00:29;;;;;;;71.40;25.30;;;14.30;99.90;;;;;;5096122;28;20620;-80
2021/08/17 00:02:55;;;;;;;75.73;27.23;;;14.30;99.90;;;;;;5070826;28;20176;-79
2021/08/17 00:05:20;;;;;;;74.77;26.00;;;14.40;99.90;;;;;;5094132;28;20209;-79
2021/08/17 00:07:46;;;;;;;72.63;25.23;;;14.40;99.90;;;;;;5106286;28;20256;-80
2021/08/17 00:10:12;;;;;;;76.23;26.43;;;14.40;99.90;;;;;;5073962;28;20193;-80
2021/08/17 00:12:38;;;;;;;76.27;27.20;;;14.30;99.90;;;;;;5094649;28;20187;-80
2021/08/17 00:15:05;;;;;;;76.97;26.50;;;14.30;99.90;;;;;;5075994;28;20196;-80
2021/08/17 00:17:31;;;;;;;80.23;28.40;;;14.30;99.90;;;;;;5089964;28;20187;-79
2021/08/17 00:19:57;;;;;;;82.73;27.17;;;14.30;99.90;;;;;;5084113;28;20269;-81
2021/08/17 00:22:23;;;;;;;76.90;26.60;;;14.20;99.90;;;;;;5078272;28;20209;-79
2021/08/17 00:24:54;;;;;;;80.13;26.80;;;14.20;99.90;;;;;;5072896;28;20640;-80
2021/08/17 00:27:20;;;;;;;81.07;28.47;;;14.20;99.90;;;;;;5089058;28;20199;-80
2021/08/17 00:29:47;;;;;;;78.07;26.93;;;14.10;99.90;;;;;;5072535;28;20666;-80
2021/08/17 00:32:13;;;;;;;91.53;29.57;;;14.10;99.90;;;;;;5092643;28;20530;-80
2021/08/17 00:34:39;;;;;;;83.30;28.30;;;14.20;99.90;;;;;;5089118;28;20186;-80
2021/08/17 00:37:05;;;;;;;72.80;26.90;;;14.20;99.90;;;;;;5090988;28;20193;-80
2021/08/17 00:39:31;;;;;;;83.30;28.00;;;14.20;99.90;;;;;;5093296;28;20187;-81
2021/08/17 00:41:58;;;;;;;81.43;29.33;;;14.20;99.90;;;;;;5090785;28;20207;-80
2021/08/17 00:44:25;;;;;;;72.83;26.47;;;14.20;99.90;;;;;;5076197;28;20186;-80
2021/08/17 00:46:53;;;;;;;72.17;26.90;;;14.10;99.90;;;;;;5087787;28;20188;-80
2021/08/17 00:49:20;;;;;;;79.40;27.90;;;14.10;99.90;;;;;;5090666;28;20178;-80
2021/08/17 00:51:47;;;;;;;77.87;28.30;;;14.10;99.90;;;;;;5089089;28;20645;-80
2021/08/17 00:54:13;;;;;;;76.37;26.80;;;14.10;99.90;;;;;;5094350;28;20193;-79
2021/08/17 00:56:40;;;;;;;72.63;26.73;;;14.10;99.90;;;;;;5080305;28;20175;-80
2021/08/17 00:59:06;;;;;;;83.60;29.20;;;14.10;99.90;;;;;;5078024;28;20194;-81
2021/08/17 01:01:32;;;;;;;75.00;27.33;;;14.10;99.90;;;;;;5077007;28;20195;-80
2021/08/17 01:03:57;;;;;;;81.20;27.87;;;14.00;99.90;;;;;;5080535;28;20182;-80
2021/08/17 01:06:25;;;;;;;78.77;28.40;;;14.10;99.90;;;;;;5076988;28;20183;-80
2021/08/17 01:08:51;;;;;;;75.60;28.13;;;14.10;99.90;;;;;;5086760;28;20234;-81
2021/08/17 01:11:17;;;;;;;79.27;27.93;;;14.10;99.90;;;;;;5072630;28;20218;-81
2021/08/17 01:13:42;;;;;;;81.80;27.73;;;14.10;99.90;;;;;;5087516;28;20188;-81
2021/08/17 01:16:08;;;;;;;81.50;28.33;;;14.10;99.90;;;;;;5097176;28;20310;-81
2021/08/17 01:18:34;;;;;;;78.27;28.93;;;14.10;99.90;;;;;;5074428;28;20178;-80
2021/08/17 01:21:01;;;;;;;86.23;30.00;;;14.10;99.90;;;;;;5092724;28;20272;-80
2021/08/17 01:23:31;;;;;;;88.50;29.43;;;14.20;99.90;;;;;;5075978;28;20219;-81
2021/08/17 01:25:56;;;;;;;82.30;28.87;;;14.20;99.90;;;;;;5089264;28;20252;-81
2021/08/17 01:28:22;;;;;;;88.47;31.80;;;14.30;99.90;;;;;;5097703;28;20215;-80
2021/08/17 01:30:56;;;;;;;84.70;29.00;;;14.30;99.90;;;;;;5089368;28;20668;-80
2021/08/17 01:33:22;;;;;;;87.77;30.17;;;14.20;99.90;;;;;;5064799;28;20550;-80
2021/08/17 01:35:48;;;;;;;87.80;30.07;;;14.20;99.90;;;;;;5088126;28;20194;-80
2021/08/17 01:38:13;;;;;;;88.50;30.67;;;14.20;99.90;;;;;;5073219;28;20649;-80
2021/08/17 01:40:39;;;;;;;90.60;30.17;;;14.10;99.90;;;;;;5105535;28;20191;-80
2021/08/17 01:43:05;;;;;;;94.03;30.30;;;14.10;99.90;;;;;;5086568;28;20213;-80
2021/08/17 01:45:30;;;;;;;84.43;29.33;;;14.10;99.90;;;;;;5095707;28;20649;-81
2021/08/17 01:47:56;;;;;;;92.73;30.67;;;14.10;99.90;;;;;;5109398;27;20229;-82
2021/08/17 01:50:24;;;;;;;89.30;30.40;;;14.00;99.90;;;;;;5090986;27;20189;-80
2021/08/17 01:52:50;;;;;;;85.57;30.20;;;14.10;99.90;;;;;;5103929;28;20925;-80
2021/08/17 01:55:16;;;;;;;90.63;28.90;;;14.00;99.90;;;;;;5077228;28;20193;-80
2021/08/17 01:57:42;;;;;;;98.23;30.77;;;14.10;99.90;;;;;;5080255;28;20198;-80
2021/08/17 02:00:09;;;;;;;100.33;31.50;;;14.10;99.90;;;;;;5079010;28;20783;-80
2021/08/17 02:02:36;;;;;;;101.23;32.90;;;14.20;99.90;;;;;;5092927;28;20183;-80
2021/08/17 02:05:03;;;;;;;93.17;31.50;;;14.20;99.90;;;;;;5079764;28;20249;-80
2021/08/17 02:07:29;;;;;;;102.23;32.43;;;14.20;99.90;;;;;;5094201;27;20209;-82
2021/08/17 02:09:55;;;;;;;99.67;31.83;;;14.20;99.90;;;;;;5077295;28;20189;-81
2021/08/17 02:12:20;;;;;;;90.20;30.70;;;14.20;99.90;;;;;;5094715;28;20185;-82
2021/08/17 02:14:46;;;;;;;99.77;31.53;;;14.10;99.90;;;;;;5105404;28;20628;-82
2021/08/17 02:17:12;;;;;;;95.07;31.13;;;14.10;99.90;;;;;;5076778;28;20183;-82
2021/08/17 02:19:37;;;;;;;99.17;32.63;;;14.00;99.90;;;;;;5106278;28;20237;-81
2021/08/17 02:22:03;;;;;;;101.17;32.77;;;14.10;99.90;;;;;;5096200;28;20182;-82
2021/08/17 02:24:29;;;;;;;98.20;30.77;;;14.10;99.90;;;;;;5091605;28;20226;-82
2021/08/17 02:26:55;;;;;;;87.73;31.10;;;14.10;99.90;;;;;;5094436;28;20603;-82
2021/08/17 02:29:22;;;;;;;89.23;31.17;;;14.10;99.90;;;;;;5076757;28;20217;-82
2021/08/17 02:31:48;;;;;;;92.53;31.07;;;14.10;99.90;;;;;;5094454;28;20232;-81
2021/08/17 02:34:13;;;;;;;88.70;30.80;;;14.20;99.90;;;;;;5105327;27;20180;-82
2021/08/17 02:36:39;;;;;;;93.50;31.30;;;14.20;99.90;;;;;;5078809;28;20179;-82
2021/08/17 02:39:05;;;;;;;104.97;31.97;;;14.20;99.90;;;;;;5077281;28;20190;-81
2021/08/17 02:41:31;;;;;;;85.37;29.00;;;14.20;99.90;;;;;;5090805;27;20190;-81
2021/08/17 02:43:57;;;;;;;92.73;31.60;;;14.20;99.90;;;;;;5113290;27;20178;-82
2021/08/17 02:46:22;;;;;;;84.17;30.10;;;14.20;99.90;;;;;;5080329;28;20564;-81
2021/08/17 02:48:48;;;;;;;93.30;32.10;;;14.10;99.90;;;;;;5075243;28;20214;-81
2021/08/17 02:51:15;;;;;;;89.87;30.70;;;14.10;99.90;;;;;;5072188;28;20201;-81
2021/08/17 02:53:41;;;;;;;86.70;29.60;;;14.10;99.90;;;;;;5092283;27;20179;-80
2021/08/17 02:56:06;;;;;;;87.23;29.37;;;14.10;99.90;;;;;;5093876;28;20265;-81
2021/08/17 02:58:32;;;;;;;87.50;30.80;;;14.10;99.90;;;;;;5077123;28;20195;-82
2021/08/17 03:00:58;;;;;;;85.73;30.23;;;14.10;99.90;;;;;;5075867;28;20179;-81
2021/08/17 03:03:23;;;;;;;83.97;29.73;;;14.10;99.90;;;;;;5090331;28;20277;-82
2021/08/17 03:05:49;;;;;;;78.43;28.93;;;14.00;99.90;;;;;;5081503;27;20182;-81
2021/08/17 03:08:15;;;;;;;81.40;29.03;;;13.90;99.90;;;;;;5075903;28;20221;-82
2021/08/17 03:10:41;;;;;;;77.83;28.87;;;13.90;99.90;;;;;;5072454;28;20179;-81
2021/08/17 03:13:08;;;;;;;88.83;29.77;;;13.90;99.90;;;;;;5079804;28;20206;-82
2021/08/17 03:15:34;;;;;;;81.63;29.60;;;14.00;99.90;;;;;;5090851;28;20235;-82
2021/08/17 03:18:01;;;;;;;80.83;29.70;;;14.00;99.90;;;;;;5086913;28;20678;-82
2021/08/17 03:20:27;;;;;;;84.53;29.63;;;14.10;99.90;;;;;;5094392;28;20595;-83
2021/08/17 03:22:53;;;;;;;92.67;30.57;;;14.10;99.90;;;;;;5069987;28;20246;-82
2021/08/17 03:25:20;;;;;;;84.10;28.93;;;14.10;99.90;;;;;;5088241;28;20642;-81
2021/08/17 03:27:46;;;;;;;91.40;29.87;;;14.00;99.90;;;;;;5087078;28;20200;-82
2021/08/17 03:30:14;;;;;;;81.23;29.97;;;14.00;99.90;;;;;;5071287;28;20179;-83
2021/08/17 03:32:40;;;;;;;84.43;28.53;;;14.00;99.90;;;;;;5071986;28;20187;-81
2021/08/17 03:35:07;;;;;;;77.97;28.07;;;14.00;99.90;;;;;;5085408;28;20181;-82
2021/08/17 03:37:33;;;;;;;85.20;29.43;;;14.00;99.90;;;;;;5099933;28;20548;-83
2021/08/17 03:39:59;;;;;;;75.07;28.43;;;14.00;99.90;;;;;;5089519;28;20178;-81
2021/08/17 03:42:29;;;;;;;83.93;28.47;;;14.00;99.90;;;;;;5081574;28;20291;-82
2021/08/17 03:44:59;;;;;;;82.40;27.63;;;14.00;99.90;;;;;;5106759;28;20194;-81
2021/08/17 03:47:25;;;;;;;85.30;28.33;;;14.00;99.90;;;;;;5090305;28;20217;-81
2021/08/17 03:52:17;;;;;;;90.00;28.83;;;14.00;99.90;;;;;;5067445;28;20672;-82
2021/08/17 03:54:43;;;;;;;82.97;29.87;;;13.90;99.90;;;;;;5083504;28;20183;-82
2021/08/17 03:57:08;;;;;;;86.40;29.13;;;13.90;99.90;;;;;;5087374;28;20190;-81
2021/08/17 03:59:34;;;;;;;89.03;28.87;;;13.90;99.90;;;;;;5069722;28;20186;-81
2021/08/17 04:02:00;;;;;;;86.17;28.83;;;13.90;99.90;;;;;;5071619;28;20212;-81
2021/08/17 04:04:25;;;;;;;85.00;28.50;;;13.90;99.90;;;;;;5101330;28;20183;-81
2021/08/17 04:06:51;;;;;;;81.60;26.73;;;13.90;99.90;;;;;;5083483;28;20194;-82
2021/08/17 04:09:16;;;;;;;84.27;27.23;;;13.80;99.90;;;;;;5091802;28;20261;-81
2021/08/17 04:11:42;;;;;;;81.80;28.23;;;13.90;99.90;;;;;;5094780;28;20182;-82
2021/08/17 04:14:08;;;;;;;78.53;29.03;;;13.90;99.90;;;;;;5087135;28;20237;-81
2021/08/17 04:16:33;;;;;;;73.87;28.13;;;13.90;99.90;;;;;;5073344;28;20183;-81
2021/08/17 04:19:01;;;;;;;77.87;27.43;;;13.90;99.90;;;;;;5092048;28;20187;-81
2021/08/17 04:21:26;;;;;;;78.43;27.20;;;13.80;99.90;;;;;;5081857;28;20226;-81
2021/08/17 04:23:52;;;;;;;80.37;27.00;;;13.80;99.90;;;;;;5085901;28;20262;-81
2021/08/17 04:26:18;;;;;;;81.47;27.57;;;13.80;99.90;;;;;;5087303;28;20660;-81
2021/08/17 04:28:44;;;;;;;80.07;28.03;;;13.90;99.90;;;;;;5078391;28;20205;-81
2021/08/17 04:31:09;;;;;;;83.40;28.43;;;13.80;99.90;;;;;;5087983;28;20179;-81
2021/08/17 04:33:35;;;;;;;79.17;27.17;;;13.90;99.90;;;;;;5067888;28;20172;-81
2021/08/17 04:36:01;;;;;;;82.73;26.93;;;13.90;99.90;;;;;;5087913;28;20182;-81
2021/08/17 04:38:26;;;;;;;76.37;27.13;;;13.80;99.90;;;;;;5087645;28;20203;-81
2021/08/17 04:40:52;;;;;;;78.23;26.37;;;13.90;99.90;;;;;;5069926;28;20191;-81
2021/08/17 04:43:18;;;;;;;80.57;27.00;;;13.90;99.90;;;;;;5088403;28;20275;-82
2021/08/17 04:45:43;;;;;;;81.47;26.73;;;13.90;99.90;;;;;;5074512;28;20180;-80
2021/08/17 04:48:09;;;;;;;82.37;26.90;;;13.90;99.90;;;;;;5085178;28;20206;-81
2021/08/17 04:50:35;;;;;;;75.47;26.43;;;13.90;99.90;;;;;;5083180;28;20179;-81
2021/08/17 04:53:00;;;;;;;75.83;26.70;;;14.00;99.90;;;;;;5088541;28;20549;-82
2021/08/17 04:55:26;;;;;;;72.10;25.70;;;14.00;99.90;;;;;;5068318;28;20681;-83
2021/08/17 04:57:57;;;;;;;66.17;23.97;;;14.00;99.90;;;;;;5082746;28;20228;-80
2021/08/17 05:00:25;;;;;;;70.00;25.37;;;14.00;99.90;;;;;;5083241;28;20179;-82
2021/08/17 05:02:50;;;;;;;66.60;24.43;;;14.00;99.90;;;;;;5090491;28;20183;-81
2021/08/17 05:05:16;;;;;;;61.97;24.50;;;14.10;99.90;;;;;;5090334;28;20189;-82
2021/08/17 05:07:43;;;;;;;69.83;25.10;;;14.10;99.90;;;;;;5085108;28;20210;-82
2021/08/17 05:10:13;;;;;;;68.87;24.77;;;14.10;99.90;;;;;;5082655;28;20190;-82
2021/08/17 05:12:39;;;;;;;69.90;25.40;;;14.10;99.90;;;;;;5085851;28;20190;-82
2021/08/17 05:15:06;;;;;;;74.03;25.03;;;14.10;99.90;;;;;;5088157;28;20179;-81
2021/08/17 05:17:32;;;;;;;71.10;24.30;;;14.20;99.90;;;;;;5073091;28;20276;-79
2021/08/17 05:19:58;;;;;;;73.10;25.03;;;14.20;99.90;;;;;;5071459;28;20518;-80
2021/08/17 05:22:24;;;;;;;66.53;24.37;;;14.30;99.90;;;;;;5103589;28;20286;-79
2021/08/17 05:24:50;;;;;;;69.80;23.53;;;14.30;99.90;;;;;;5079175;28;20657;-80
2021/08/17 05:27:15;;;;;;;65.20;23.30;;;14.40;99.90;;;;;;5074655;28;20538;-80
2021/08/17 05:29:41;;;;;;;66.30;23.83;;;14.50;99.90;;;;;;5089556;28;20231;-81
2021/08/17 05:32:07;;;;;;;57.20;23.00;;;14.50;99.90;;;;;;5101629;28;20211;-81
2021/08/17 05:34:33;;;;;;;61.70;24.07;;;14.50;99.90;;;;;;5092229;28;20175;-78
2021/08/17 05:36:59;;;;;;;64.00;23.23;;;14.50;99.90;;;;;;5074508;28;20544;-80
2021/08/17 05:39:25;;;;;;;65.40;23.50;;;14.60;99.90;;;;;;5070597;28;20179;-80
2021/08/17 05:41:50;;;;;;;62.40;22.97;;;14.70;99.90;;;;;;5077216;28;20243;-80
2021/08/17 05:44:17;;;;;;;64.00;22.57;;;14.70;99.90;;;;;;5098226;28;20180;-80
2021/08/17 05:46:43;;;;;;;59.23;22.37;;;14.80;99.90;;;;;;5114095;27;20872;-80
2021/08/17 05:49:09;;;;;;;62.03;22.97;;;14.90;99.90;;;;;;5075046;28;20198;-79
2021/08/17 05:51:35;;;;;;;57.23;21.20;;;15.00;99.90;;;;;;5073027;28;20175;-80
2021/08/17 05:54:01;;;;;;;55.30;21.87;;;15.30;99.90;;;;;;5078378;28;20175;-79
2021/08/17 05:56:26;;;;;;;54.33;21.70;;;15.70;99.90;;;;;;5096401;28;20657;-79
2021/08/17 05:58:52;;;;;;;52.03;21.87;;;16.30;99.90;;;;;;5075679;28;20245;-79
2021/08/17 06:01:18;;;;;;;50.30;20.73;;;16.50;99.90;;;;;;5090549;28;20193;-79
2021/08/17 06:03:43;;;;;;;57.33;21.17;;;17.10;99.90;;;;;;5086209;28;20283;-80
2021/08/17 06:06:10;;;;;;;48.83;20.10;;;17.80;99.90;;;;;;5092218;28;20182;-80
2021/08/17 06:08:35;;;;;;;43.87;19.27;;;18.20;99.90;;;;;;5089033;28;20584;-80
2021/08/17 06:11:01;;;;;;;45.17;19.13;;;18.80;99.90;;;;;;5077235;28;20186;-79
2021/08/17 06:13:27;;;;;;;39.63;19.43;;;18.90;99.90;;;;;;5073197;28;20197;-79
2021/08/17 06:15:53;;;;;;;41.07;18.30;;;19.30;99.90;;;;;;5093249;28;20184;-80
2021/08/17 06:18:19;;;;;;;36.77;17.87;;;19.90;99.90;;;;;;5093058;28;20269;-79
2021/08/17 06:20:44;;;;;;;38.27;17.70;;;20.20;99.90;;;;;;5075286;28;20625;-80
2021/08/17 06:23:10;;;;;;;38.53;18.53;;;19.90;99.90;;;;;;5077913;28;20233;-79
2021/08/17 06:25:36;;;;;;;47.27;18.60;;;19.60;99.90;;;;;;5078431;28;20254;-79
2021/08/17 06:28:10;;;;;;;43.93;19.10;;;19.50;99.90;;;;;;5107676;28;20203;-80
2021/08/17 06:30:38;;;;;;;40.77;18.53;;;19.50;99.90;;;;;;5076355;28;20258;-80
2021/08/17 06:33:04;;;;;;;35.37;16.53;;;20.50;99.90;;;;;;5096780;27;20233;-79
2021/08/17 06:35:30;;;;;;;35.20;17.20;;;21.70;99.90;;;;;;5079668;28;20655;-79
2021/08/17 06:37:56;;;;;;;34.23;16.83;;;21.70;99.90;;;;;;5112079;27;20188;-80
2021/08/17 06:40:22;;;;;;;36.97;17.80;;;21.10;99.90;;;;;;5079568;28;20278;-79
2021/08/17 06:42:48;;;;;;;40.07;18.23;;;20.70;99.90;;;;;;5073461;28;20188;-80
2021/08/17 06:45:14;;;;;;;36.87;17.73;;;20.30;99.90;;;;;;5075303;28;20185;-80
2021/08/17 06:47:51;;;;;;;34.67;17.37;;;20.10;99.90;;;;;;5078138;28;20203;-80
2021/08/17 06:50:18;;;;;;;36.20;16.90;;;20.30;99.90;;;;;;5068513;28;20606;-79
2021/08/17 06:52:44;;;;;;;40.57;17.77;;;21.20;99.90;;;;;;5088574;28;20333;-80
2021/08/17 06:55:10;;;;;;;31.70;16.47;;;21.90;99.90;;;;;;5093298;28;20288;-79
2021/08/17 06:57:36;;;;;;;33.10;16.30;;;22.90;99.90;;;;;;5103194;28;20198;-79
2021/08/17 07:00:04;;;;;;;31.23;15.80;;;23.70;99.90;;;;;;5086837;28;20642;-80
2021/08/17 07:02:30;;;;;;;34.70;16.73;;;23.20;99.90;;;;;;5076453;28;20323;-79
2021/08/17 07:04:55;;;;;;;33.93;16.83;;;22.50;99.90;;;;;;5075550;28;20732;-80
2021/08/17 07:07:21;;;;;;;32.57;16.30;;;21.90;99.90;;;;;;5096810;28;20213;-80
2021/08/17 07:09:47;;;;;;;34.47;16.17;;;21.40;99.90;;;;;;5092148;28;20220;-80
2021/08/17 07:12:13;;;;;;;31.77;16.50;;;20.90;99.90;;;;;;5079409;28;20212;-80
2021/08/17 07:14:39;;;;;;;34.23;16.33;;;20.60;99.90;;;;;;5093972;28;20180;-80
2021/08/17 07:17:05;;;;;;;32.57;16.93;;;20.30;99.90;;;;;;5089442;28;20183;-80
2021/08/17 07:19:31;;;;;;;31.07;15.93;;;20.10;99.90;;;;;;5081126;28;20179;-80
2021/08/17 07:21:58;;;;;;;37.97;17.93;;;19.80;99.90;;;;;;5079711;28;20220;-80
2021/08/17 07:24:24;;;;;;;35.53;17.33;;;19.60;99.90;;;;;;5077360;28;20225;-80
2021/08/17 07:26:50;;;;;;;40.67;17.17;;;19.40;99.90;;;;;;5093165;28;20235;-80
2021/08/17 07:29:16;;;;;;;32.17;15.50;;;19.30;99.90;;;;;;5104934;28;20237;-80
2021/08/17 07:31:42;;;;;;;34.60;16.83;;;19.30;99.90;;;;;;5069597;28;20219;-80
2021/08/17 07:34:09;;;;;;;36.27;17.07;;;19.30;99.90;;;;;;5106243;28;20191;-80
2021/08/17 07:36:36;;;;;;;33.77;16.67;;;19.60;99.90;;;;;;5105579;28;20257;-81
2021/08/17 07:39:06;;;;;;;31.97;16.13;;;20.10;99.90;;;;;;5094453;28;20271;-81
2021/08/17 07:41:33;;;;;;;33.33;15.70;;;20.40;99.90;;;;;;5074361;28;20173;-81
2021/08/17 07:43:59;;;;;;;35.83;15.53;;;20.60;99.90;;;;;;5072613;28;20187;-81
2021/08/17 07:46:25;;;;;;;36.20;14.93;;;20.60;99.90;;;;;;5086109;28;20241;-81
2021/08/17 07:48:51;;;;;;;30.40;15.50;;;20.70;99.90;;;;;;5074924;28;20765;-82
2021/08/17 07:51:17;;;;;;;34.97;15.80;;;21.00;99.90;;;;;;5087798;28;20176;-81
2021/08/17 07:53:43;;;;;;;32.33;15.37;;;21.20;99.90;;;;;;5089675;28;20186;-80
2021/08/17 07:56:09;;;;;;;32.17;15.67;;;21.30;99.90;;;;;;5081446;28;20558;-81
2021/08/17 07:58:35;;;;;;;31.33;15.23;;;21.30;99.90;;;;;;5074956;28;20199;-80
2021/08/17 08:01:01;;;;;;;31.17;15.17;;;21.10;99.90;;;;;;5094727;28;20192;-81
2021/08/17 08:03:27;;;;;;;34.40;15.80;;;21.00;99.90;;;;;;5074693;28;20188;-80
2021/08/17 08:05:53;;;;;;;31.60;15.03;;;21.00;99.90;;;;;;5082966;28;20178;-81
2021/08/17 08:08:18;;;;;;;33.00;15.33;;;21.20;99.90;;;;;;5076089;28;20292;-80
2021/08/17 08:10:44;;;;;;;30.83;14.30;;;21.40;99.90;;;;;;5087495;28;20202;-80
2021/08/17 08:13:10;;;;;;;31.23;14.73;;;21.30;99.90;;;;;;5084281;28;20179;-81
2021/08/17 08:15:36;;;;;;;31.23;14.83;;;21.30;99.90;;;;;;5101365;28;20192;-80
2021/08/17 08:18:03;;;;;;;29.00;15.07;;;21.30;99.90;;;;;;5087797;28;20261;-80
2021/08/17 08:20:29;;;;;;;31.10;14.90;;;21.30;99.90;;;;;;5086031;28;20721;-80
2021/08/17 08:22:54;;;;;;;32.03;14.57;;;21.30;99.90;;;;;;5072507;28;20310;-81
2021/08/17 08:25:21;;;;;;;30.77;14.77;;;21.40;99.90;;;;;;5088019;28;20276;-80
2021/08/17 08:27:47;;;;;;;33.20;14.67;;;21.90;99.90;;;;;;5073502;28;20270;-80
2021/08/17 08:30:13;;;;;;;28.10;13.90;;;22.20;99.90;;;;;;5077189;28;20175;-81
2021/08/17 08:32:40;;;;;;;29.50;13.87;;;22.40;99.90;;;;;;5093326;28;20209;-82
2021/08/17 08:35:07;;;;;;;28.40;14.93;;;22.40;99.90;;;;;;5089486;28;20595;-81
2021/08/17 08:37:33;;;;;;;30.90;14.20;;;22.50;99.90;;;;;;5090429;28;20668;-81
2021/08/17 08:39:59;;;;;;;29.63;14.00;;;23.10;99.90;;;;;;5094087;28;20192;-81
2021/08/17 08:42:25;;;;;;;26.87;13.10;;;23.20;99.90;;;;;;5073722;28;20277;-81
2021/08/17 08:44:53;;;;;;;25.20;13.20;;;22.90;99.90;;;;;;5111525;28;20680;-81
2021/08/17 08:47:19;;;;;;;30.27;13.63;;;22.40;99.90;;;;;;5104003;28;20337;-81
2021/08/17 08:49:48;;;;;;;26.03;12.70;;;22.10;99.90;;;;;;5085610;28;20235;-81
2021/08/17 08:52:14;;;;;;;26.67;13.27;;;22.00;99.90;;;;;;5086202;28;20204;-81
2021/08/17 08:54:40;;;;;;;31.57;13.67;;;21.90;99.90;;;;;;5077689;28;20188;-81
2021/08/17 08:57:06;;;;;;;24.53;13.67;;;21.80;99.90;;;;;;5091824;28;20180;-82
2021/08/17 08:59:33;;;;;;;27.77;12.90;;;21.80;99.90;;;;;;5078081;28;20187;-82
2021/08/17 09:02:06;;;;;;;22.90;11.60;;;21.80;99.90;;;;;;5088749;28;20212;-81
2021/08/17 09:04:32;;;;;;;25.33;12.20;;;21.60;99.90;;;;;;5074736;28;20188;-82
2021/08/17 09:06:59;;;;;;;22.60;11.80;;;21.80;99.90;;;;;;5092199;28;20218;-81
2021/08/17 09:09:24;;;;;;;21.40;10.97;;;22.10;99.90;;;;;;5077600;28;20181;-81
2021/08/17 09:11:53;;;;;;;22.67;10.90;;;22.40;99.90;;;;;;5088046;28;20207;-81
2021/08/17 15:40:21;;;;;;;14.27;6.33;;;18.60;99.90;;;;;;5008817;28;20773;-81
2021/08/17 15:42:48;;;;;;;16.03;5.27;;;18.60;99.90;;;;;;4908046;28;1993284;-82
2021/08/17 15:45:15;;;;;;;12.90;5.57;;;18.30;99.90;;;;;;4975187;28;20198;-81
2021/08/17 15:47:42;;;;;;;13.60;6.30;;;18.10;99.90;;;;;;4960658;28;20207;-82
2021/08/17 15:50:11;;;;;;;11.87;6.50;;;17.90;99.90;;;;;;4966142;28;20687;-82
2021/08/17 15:52:37;;;;;;;14.20;6.70;;;17.80;99.90;;;;;;4978979;28;20330;-82
2021/08/17 15:55:04;;;;;;;11.87;6.37;;;17.60;99.90;;;;;;4979139;28;20191;-82
2021/08/17 15:57:30;;;;;;;31.77;18.37;;;17.30;99.90;;;;;;4997520;28;20197;-82
2021/08/17 15:59:55;;;;;;;19.67;12.37;;;17.10;99.90;;;;;;4984880;28;20193;-81
2021/08/17 16:02:21;;;;;;;14.90;8.63;;;17.20;99.90;;;;;;4977335;28;20271;-82
2021/08/17 16:04:47;;;;;;;18.63;10.70;;;17.20;99.90;;;;;;4970341;28;20186;-82
2021/08/17 16:07:13;;;;;;;18.10;10.13;;;17.30;99.90;;;;;;4993359;28;20204;-82
2021/08/17 16:09:39;;;;;;;24.10;12.27;;;17.20;99.90;;;;;;4992430;28;20193;-82
2021/08/17 16:12:05;;;;;;;20.90;10.27;;;17.20;99.90;;;;;;4991096;28;20244;-83
2021/08/17 16:14:32;;;;;;;27.43;12.13;;;17.20;99.90;;;;;;4977191;28;20190;-82
2021/08/17 16:16:58;;;;;;;17.57;8.03;;;17.30;99.90;;;;;;4981217;28;20220;-82
2021/08/17 16:19:24;;;;;;;12.77;6.77;;;17.40;99.90;;;;;;4976792;28;20189;-80
2021/08/17 16:21:50;;;;;;;21.07;12.63;;;17.20;99.90;;;;;;4981722;28;20928;-82
2021/08/17 16:24:16;;;;;;;13.93;8.13;;;17.30;99.90;;;;;;4975449;28;20185;-82
2021/08/17 16:26:41;;;;;;;13.30;6.83;;;17.40;99.90;;;;;;4977309;28;20179;-82
2021/08/17 16:29:08;;;;;;;17.80;7.07;;;17.60;99.90;;;;;;4974862;28;20531;-83
2021/08/17 16:31:34;;;;;;;17.33;9.10;;;17.50;99.90;;;;;;4975779;28;20197;-82
2021/08/17 16:34:01;;;;;;;21.40;10.90;;;17.60;99.90;;;;;;4976971;28;20186;-81
2021/08/17 16:36:27;;;;;;;20.00;9.80;;;17.80;99.90;;;;;;4976460;28;20278;-82
2021/08/17 16:38:52;;;;;;;16.10;10.27;;;17.90;99.90;;;;;;4976287;28;20296;-81
2021/08/17 16:41:18;;;;;;;15.20;10.93;;;17.90;99.90;;;;;;4969602;28;20590;-82
2021/08/17 16:43:47;;;;;;;19.07;10.77;;;17.80;99.90;;;;;;4987399;28;20189;-82
2021/08/17 16:46:14;;;;;;;15.63;12.07;;;17.80;99.90;;;;;;4982221;28;20202;-82
2021/08/17 16:48:40;;;;;;;17.47;12.77;;;17.90;99.90;;;;;;4984787;28;20265;-82
2021/08/17 16:51:06;;;;;;;16.73;12.80;;;18.00;99.90;;;;;;4973910;28;20333;-82
2021/08/17 16:53:32;;;;;;;16.13;12.20;;;18.00;99.90;;;;;;4975325;28;20265;-83
2021/08/17 16:55:58;;;;;;;15.47;11.70;;;18.10;99.90;;;;;;4974405;28;20211;-83
2021/08/17 16:58:24;;;;;;;13.93;10.50;;;18.10;99.90;;;;;;4994257;28;20223;-83
2021/08/17 17:00:49;;;;;;;13.33;9.60;;;18.20;99.90;;;;;;4973004;28;20546;-84
2021/08/17 17:03:15;;;;;;;11.47;8.27;;;18.10;99.90;;;;;;4990715;28;20190;-83
2021/08/17 17:05:41;;;;;;;14.03;8.87;;;18.00;99.90;;;;;;4988702;28;20175;-84
2021/08/17 17:08:07;;;;;;;14.73;8.87;;;18.00;99.90;;;;;;4975678;28;20209;-83
2021/08/17 17:10:32;;;;;;;11.97;7.43;;;18.00;99.90;;;;;;4972618;28;20738;-84
2021/08/17 17:12:59;;;;;;;11.67;6.77;;;18.00;99.90;;;;;;4975041;28;20212;-82
2021/08/17 17:15:25;;;;;;;14.83;8.27;;;17.60;99.90;;;;;;4958123;28;20558;-83
2021/08/17 17:17:51;;;;;;;10.70;6.70;;;17.40;99.90;;;;;;4993431;28;20275;-84
2021/08/17 17:20:17;;;;;;;14.53;8.33;;;17.20;99.90;;;;;;4975322;28;20185;-83
2021/08/17 17:22:43;;;;;;;13.50;9.37;;;17.20;99.90;;;;;;4980917;28;20183;-84
2021/08/17 17:25:09;;;;;;;15.43;9.67;;;17.30;99.90;;;;;;4993563;28;20202;-82
2021/08/17 17:27:36;;;;;;;15.63;8.83;;;17.50;99.90;;;;;;4978859;28;20672;-83
2021/08/17 17:30:03;;;;;;;12.43;7.97;;;17.50;99.90;;;;;;4974526;28;20590;-83
2021/08/17 17:32:29;;;;;;;16.37;9.90;;;17.60;99.90;;;;;;4980158;28;20202;-83
2021/08/17 17:34:55;;;;;;;15.27;8.07;;;17.40;99.90;;;;;;4981778;28;20201;-84
2021/08/17 17:37:21;;;;;;;14.90;8.00;;;17.40;99.90;;;;;;4997111;28;20211;-83
2021/08/17 17:39:46;;;;;;;14.00;8.43;;;17.40;99.90;;;;;;4992460;28;20183;-83
2021/08/17 17:42:12;;;;;;;13.07;8.10;;;17.40;99.90;;;;;;4985479;28;20229;-82
2021/08/17 17:44:38;;;;;;;14.33;8.73;;;17.50;99.90;;;;;;4975024;28;20185;-81
2021/08/17 17:47:04;;;;;;;17.67;9.40;;;17.60;99.90;;;;;;4980602;28;20190;-83
2021/08/17 17:49:29;;;;;;;16.53;9.73;;;17.60;99.90;;;;;;4979094;28;20183;-83
2021/08/17 17:51:55;;;;;;;23.37;11.77;;;17.70;99.90;;;;;;4983044;28;20191;-83
2021/08/17 17:54:21;;;;;;;18.57;9.17;;;17.60;99.90;;;;;;4973443;28;20240;-82
2021/08/17 17:56:47;;;;;;;14.90;8.87;;;17.70;99.90;;;;;;4976508;28;20205;-82
2021/08/17 17:59:13;;;;;;;18.07;9.97;;;17.70;99.90;;;;;;4992303;28;20211;-82
2021/08/17 18:01:38;;;;;;;20.13;11.03;;;17.70;99.90;;;;;;4978897;28;20174;-82
2021/08/17 18:04:04;;;;;;;15.77;9.57;;;17.80;99.90;;;;;;4994419;28;20527;-82
2021/08/17 18:06:32;;;;;;;18.93;10.10;;;17.80;99.90;;;;;;4978866;28;20551;-82
2021/08/17 18:08:58;;;;;;;14.50;9.67;;;17.70;99.90;;;;;;4978662;28;20186;-82
2021/08/17 18:11:24;;;;;;;13.03;8.87;;;17.80;99.90;;;;;;4961516;28;20182;-82
2021/08/17 18:13:52;;;;;;;15.40;9.47;;;17.80;99.90;;;;;;4979085;28;20593;-83
2021/08/17 18:16:18;;;;;;;22.03;12.00;;;17.80;99.90;;;;;;4990710;28;20182;-83
2021/08/17 18:18:44;;;;;;;17.50;9.77;;;17.90;99.90;;;;;;4996215;28;20209;-82
2021/08/17 18:21:10;;;;;;;16.17;8.87;;;18.00;99.90;;;;;;4976601;28;20232;-85
2021/08/17 18:23:35;;;;;;;18.57;8.70;;;18.00;99.90;;;;;;4980384;28;20440;-84
2021/08/17 18:26:02;;;;;;;16.10;8.37;;;18.00;99.90;;;;;;4979125;28;20218;-81
2021/08/17 18:28:31;;;;;;;18.13;9.00;;;18.00;99.90;;;;;;4991034;28;20214;-81
2021/08/17 18:30:57;;;;;;;15.37;8.27;;;17.90;99.90;;;;;;4994539;28;20194;-83
2021/08/17 18:33:23;;;;;;;15.63;9.40;;;17.80;99.90;;;;;;4988978;28;20190;-80
2021/08/17 18:35:49;;;;;;;14.33;8.03;;;17.80;99.90;;;;;;4992459;28;20240;-82
2021/08/17 18:38:15;;;;;;;16.13;7.90;;;17.70;99.90;;;;;;4994111;28;20687;-82
2021/08/17 18:40:41;;;;;;;13.83;7.90;;;17.50;99.90;;;;;;4975522;28;20191;-83
2021/08/17 18:43:07;;;;;;;16.97;8.10;;;17.50;99.90;;;;;;4994871;28;20186;-83
2021/08/17 18:45:33;;;;;;;12.13;8.07;;;17.50;99.90;;;;;;4980863;28;20186;-83
2021/08/17 18:47:59;;;;;;;12.50;7.17;;;17.40;99.90;;;;;;4975287;28;20194;-83
2021/08/17 18:50:27;;;;;;;14.70;8.00;;;17.40;99.90;;;;;;4979166;28;20204;-83